KSCR/SCR METAR and TAF weather

Enter ICAO airport designator
Station Type Date Time Source
KSCR METAR 2021/03/05 00:55 UTC NOAA

KSCR 050055Z AUTO 33006KT 10SM CLR 14/M05 A2993 RMK AO2 T01371055


Station Type Date Time Source
KSCR Decoded METAR 2021/03/05 00:55 UTC NOAA

Station name not available
Mar 04, 2021 - 07:55 PM EST / 2021.03.05 0055 UTC
Wind: from the NNW (330 degrees) at 7 MPH (6 KT):0
Visibility: 10 mile(s):0
Sky conditions: clear
Temperature: 56.7 F (13.7 C)
Dew Point: 22.1 F (-5.5 C)
Relative Humidity: 25%
Pressure (altimeter): 29.93 in. Hg (1013 hPa)
ob: KSCR 050055Z AUTO 33006KT 10SM CLR 14/M05 A2993 RMK AO2 T01371055
cycle: 1

Station Type Date Time Source
KSCR TAF UTC NOAA

Error!

Example: see airport list